Time;durP1;ratioP1;P1;durP2;ratioP2;P2;SDS_P1;SDS_P2;PMS_P1;PMS_P2;Temp;Humidity;BMP_temperature;BMP_pressure;BME280_temperature;BME280_humidity;BME280_pressure;Samples;Min_cycle;Max_cycle;Signal;HPM_P1;HPM_P2
2023/11/27 00:00:01;;;;;;;17.98;16.10;;;;;;;;;;5062275;28;20027;-57
2023/11/27 00:02:27;;;;;;;16.40;14.70;;;;;;;;;;5065456;28;20016;-61
2023/11/27 00:04:53;;;;;;;16.90;15.20;;;;;;;;;;5071340;28;20032;-61
2023/11/27 00:07:19;;;;;;;18.55;16.65;;;;;;;;;;5077173;28;20032;-61
2023/11/27 00:09:45;;;;;;;16.95;15.15;;;;;;;;;;5078506;28;20090;-59
2023/11/27 00:12:11;;;;;;;16.80;15.10;;;;;;;;;;5093093;22;20037;-52
2023/11/27 00:14:37;;;;;;;16.42;14.73;;;;;;;;;;5053665;28;20027;-48
2023/11/27 00:17:03;;;;;;;16.40;14.70;;;;;;;;;;5072420;28;20084;-50
2023/11/27 00:19:29;;;;;;;16.05;14.35;;;;;;;;;;5053391;28;20083;-49
2023/11/27 00:21:55;;;;;;;16.77;15.07;;;;;;;;;;5070486;28;20048;-49
2023/11/27 00:24:21;;;;;;;16.42;14.73;;;;;;;;;;5072069;28;20062;-47
2023/11/27 00:26:47;;;;;;;16.55;14.85;;;;;;;;;;5072404;28;20055;-49
2023/11/27 00:29:13;;;;;;;17.65;15.77;;;;;;;;;;5072404;28;20099;-51
2023/11/27 00:31:39;;;;;;;17.95;16.05;;;;;;;;;;5072061;28;20460;-49
2023/11/27 00:34:05;;;;;;;15.60;13.90;;;;;;;;;;5072407;28;20025;-48
2023/11/27 00:36:31;;;;;;;15.82;14.13;;;;;;;;;;5072527;28;20666;-49
2023/11/27 00:38:57;;;;;;;15.82;14.13;;;;;;;;;;5072425;28;20033;-50
2023/11/27 00:41:24;;;;;;;17.40;15.60;;;;;;;;;;5071585;28;20048;-50
2023/11/27 00:43:53;;;;;;;16.02;14.18;;;;;;;;;;5072248;28;20028;-53
2023/11/27 00:46:19;;;;;;;15.60;13.90;;;;;;;;;;5072054;28;20509;-51
2023/11/27 00:48:45;;;;;;;16.17;14.48;;;;;;;;;;5072168;28;20099;-50
2023/11/27 00:51:13;;;;;;;15.65;13.95;;;;;;;;;;5071361;28;20036;-51
2023/11/27 00:53:39;;;;;;;15.98;14.27;;;;;;;;;;5072055;28;20020;-51
2023/11/27 00:56:05;;;;;;;16.30;14.60;;;;;;;;;;5072085;28;20035;-49
2023/11/27 00:58:31;;;;;;;15.50;13.77;;;;;;;;;;5072014;28;20103;-48
2023/11/27 01:00:57;;;;;;;16.73;14.30;;;;;;;;;;5070906;28;20112;-48
2023/11/27 01:03:23;;;;;;;15.77;14.07;;;;;;;;;;5072009;28;20029;-50
2023/11/27 01:05:49;;;;;;;16.45;14.50;;;;;;;;;;5070491;28;20032;-52
2023/11/27 01:08:15;;;;;;;15.55;13.85;;;;;;;;;;5071796;28;20095;-50
2023/11/27 01:10:42;;;;;;;15.98;14.27;;;;;;;;;;5070488;28;20060;-51
2023/11/27 01:13:09;;;;;;;16.95;15.15;;;;;;;;;;5071401;28;20433;-50
2023/11/27 01:15:35;;;;;;;16.00;14.30;;;;;;;;;;5070611;28;20382;-51
2023/11/27 01:18:01;;;;;;;17.58;15.77;;;;;;;;;;5071752;28;20107;-52
2023/11/27 01:20:27;;;;;;;17.02;15.23;;;;;;;;;;5069644;28;20620;-52
2023/11/27 01:22:53;;;;;;;17.10;15.40;;;;;;;;;;5071449;28;20073;-54
2023/11/27 01:25:21;;;;;;;18.05;16.25;;;;;;;;;;5070195;28;20033;-50
2023/11/27 01:27:47;;;;;;;17.20;15.50;;;;;;;;;;5071498;28;20032;-51
2023/11/27 01:30:14;;;;;;;17.35;15.55;;;;;;;;;;5070546;28;20516;-53
2023/11/27 01:32:42;;;;;;;16.85;15.15;;;;;;;;;;5071384;28;20031;-52
2023/11/27 01:35:08;;;;;;;18.10;16.30;;;;;;;;;;5071461;28;20033;-49
2023/11/27 01:37:34;;;;;;;17.45;15.65;;;;;;;;;;5071220;28;20112;-52
2023/11/27 01:40:00;;;;;;;17.70;15.90;;;;;;;;;;5068683;28;20521;-49
2023/11/27 01:42:26;;;;;;;19.55;17.35;;;;;;;;;;5069876;28;20394;-50
2023/11/27 01:44:52;;;;;;;18.95;17.15;;;;;;;;;;5068569;28;20115;-50
2023/11/27 01:47:19;;;;;;;19.55;17.70;;;;;;;;;;5069874;28;20099;-50
2023/11/27 01:49:46;;;;;;;20.98;18.95;;;;;;;;;;5070502;28;20028;-46
2023/11/27 01:52:13;;;;;;;20.63;18.63;;;;;;;;;;5069923;28;20020;-51
2023/11/27 01:54:40;;;;;;;20.98;19.08;;;;;;;;;;5070832;28;20475;-48
2023/11/27 01:57:07;;;;;;;19.80;17.90;;;;;;;;;;5070883;28;20028;-54
2023/11/27 01:59:33;;;;;;;19.20;17.40;;;;;;;;;;5070601;28;20035;-48
2023/11/27 02:02:00;;;;;;;20.13;18.23;;;;;;;;;;5070181;28;20029;-47
2023/11/27 02:04:27;;;;;;;18.83;17.02;;;;;;;;;;5070694;28;20528;-49
2023/11/27 02:06:53;;;;;;;20.27;18.38;;;;;;;;;;5070547;28;20024;-47
2023/11/27 02:09:19;;;;;;;20.25;18.35;;;;;;;;;;5070418;28;20557;-53
2023/11/27 02:11:49;;;;;;;19.70;17.80;;;;;;;;;;5068641;28;20033;-47
2023/11/27 02:14:16;;;;;;;20.13;18.23;;;;;;;;;;5070749;28;20387;-52
2023/11/27 02:16:51;;;;;;;23.33;21.23;;;;;;;;;;5071526;28;20107;-49
2023/11/27 02:19:18;;;;;;;22.15;20.15;;;;;;;;;;5071288;28;20025;-49
2023/11/27 02:21:45;;;;;;;22.88;20.88;;;;;;;;;;5070015;28;20043;-49
2023/11/27 02:24:11;;;;;;;21.85;19.95;;;;;;;;;;5068972;28;20028;-48
2023/11/27 02:26:37;;;;;;;23.98;21.88;;;;;;;;;;5070454;28;20498;-49
2023/11/27 02:29:03;;;;;;;22.88;20.88;;;;;;;;;;5070265;28;20020;-51
2023/11/27 02:31:29;;;;;;;23.92;21.83;;;;;;;;;;5069614;28;20537;-52
2023/11/27 02:33:56;;;;;;;23.40;21.20;;;;;;;;;;5068829;28;20028;-49
2023/11/27 02:36:24;;;;;;;22.75;20.75;;;;;;;;;;5068918;28;20032;-52
2023/11/27 02:38:50;;;;;;;22.35;20.35;;;;;;;;;;5068997;28;20027;-48
2023/11/27 02:41:16;;;;;;;21.63;19.63;;;;;;;;;;5069679;28;20108;-47
2023/11/27 02:43:42;;;;;;;23.15;21.05;;;;;;;;;;5070401;28;20039;-49
2023/11/27 02:46:08;;;;;;;23.60;21.50;;;;;;;;;;5070201;28;20021;-51
2023/11/27 02:48:35;;;;;;;23.40;21.40;;;;;;;;;;5069003;28;20116;-45
2023/11/27 02:51:04;;;;;;;22.17;20.17;;;;;;;;;;5069341;28;20024;-48
2023/11/27 02:53:30;;;;;;;22.63;20.63;;;;;;;;;;5068738;28;20036;-45
2023/11/27 02:55:56;;;;;;;21.90;19.90;;;;;;;;;;5069896;28;20029;-47
2023/11/27 02:58:22;;;;;;;22.38;20.38;;;;;;;;;;5068830;28;20127;-50
2023/11/27 03:00:48;;;;;;;22.38;20.38;;;;;;;;;;5069340;28;20025;-51
2023/11/27 03:03:14;;;;;;;22.65;20.65;;;;;;;;;;5069924;28;20035;-49
2023/11/27 03:05:40;;;;;;;23.98;21.88;;;;;;;;;;5069899;28;20067;-51
2023/11/27 03:08:06;;;;;;;24.70;22.33;;;;;;;;;;5067795;28;20017;-52
2023/11/27 03:10:32;;;;;;;25.25;23.00;;;;;;;;;;5068988;28;20589;-50
2023/11/27 03:12:58;;;;;;;23.13;21.13;;;;;;;;;;5070329;28;20028;-49
2023/11/27 03:15:24;;;;;;;22.70;20.70;;;;;;;;;;5068863;28;20211;-50
2023/11/27 03:17:50;;;;;;;22.80;20.80;;;;;;;;;;5069882;28;20023;-49
2023/11/27 03:20:16;;;;;;;23.73;21.63;;;;;;;;;;5069046;28;20029;-48
2023/11/27 03:22:42;;;;;;;24.13;22.00;;;;;;;;;;5068426;28;20075;-49
2023/11/27 03:25:09;;;;;;;24.10;22.00;;;;;;;;;;5069547;28;20052;-49
2023/11/27 03:27:35;;;;;;;23.55;21.45;;;;;;;;;;5069688;28;20025;-51
2023/11/27 03:30:02;;;;;;;23.55;21.45;;;;;;;;;;5067584;28;20086;-49
2023/11/27 03:32:28;;;;;;;22.55;20.55;;;;;;;;;;5069706;28;20115;-47
2023/11/27 03:34:55;;;;;;;22.60;20.60;;;;;;;;;;5070868;28;20025;-47
2023/11/27 03:37:21;;;;;;;23.13;21.13;;;;;;;;;;5073732;28;20039;-49
2023/11/27 03:39:47;;;;;;;23.90;21.80;;;;;;;;;;5071910;28;20078;-48
2023/11/27 03:42:13;;;;;;;22.88;20.88;;;;;;;;;;5072706;28;20427;-49
2023/11/27 03:44:39;;;;;;;22.83;20.83;;;;;;;;;;5073362;28;20017;-50
2023/11/27 03:47:06;;;;;;;21.98;19.98;;;;;;;;;;5073203;28;20033;-49
2023/11/27 03:49:32;;;;;;;22.27;20.27;;;;;;;;;;5073134;28;20492;-48
2023/11/27 03:51:58;;;;;;;23.05;21.05;;;;;;;;;;5072644;28;20024;-46
2023/11/27 03:54:24;;;;;;;23.00;21.00;;;;;;;;;;5073163;28;20021;-47
2023/11/27 03:56:50;;;;;;;23.92;21.73;;;;;;;;;;5071895;28;20486;-52
2023/11/27 03:59:18;;;;;;;24.38;22.27;;;;;;;;;;5071744;28;20031;-49
2023/11/27 04:01:44;;;;;;;23.63;21.52;;;;;;;;;;5072577;28;20028;-48
2023/11/27 04:04:12;;;;;;;23.70;21.60;;;;;;;;;;5073241;28;20025;-51
2023/11/27 04:06:38;;;;;;;23.40;21.30;;;;;;;;;;5073552;28;20055;-46
2023/11/27 04:09:04;;;;;;;23.70;21.60;;;;;;;;;;5072456;28;20470;-46
2023/11/27 04:11:31;;;;;;;24.77;22.58;;;;;;;;;;5072692;28;20036;-46
2023/11/27 04:13:58;;;;;;;23.50;21.40;;;;;;;;;;5073309;28;20074;-47
2023/11/27 04:16:24;;;;;;;23.50;21.40;;;;;;;;;;5073034;28;20028;-46
2023/11/27 04:18:50;;;;;;;24.55;22.23;;;;;;;;;;5072981;28;20085;-46
2023/11/27 04:21:17;;;;;;;26.10;23.90;;;;;;;;;;5072339;28;20042;-46
2023/11/27 04:23:44;;;;;;;25.70;23.50;;;;;;;;;;5072946;28;20032;-46
2023/11/27 04:26:12;;;;;;;25.40;23.20;;;;;;;;;;5072769;28;20031;-46
2023/11/27 04:28:38;;;;;;;25.90;23.67;;;;;;;;;;5071481;28;20024;-49
2023/11/27 04:31:05;;;;;;;24.60;22.50;;;;;;;;;;5071986;28;20099;-50
2023/11/27 04:33:31;;;;;;;25.52;23.33;;;;;;;;;;5072629;28;20027;-48
2023/11/27 04:35:57;;;;;;;29.52;26.90;;;;;;;;;;5072849;28;20039;-49
2023/11/27 04:38:23;;;;;;;25.95;23.75;;;;;;;;;;5072356;28;20029;-50
2023/11/27 04:40:50;;;;;;;25.55;23.35;;;;;;;;;;5071419;28;20027;-48
2023/11/27 04:43:16;;;;;;;25.05;22.95;;;;;;;;;;5070883;28;20099;-47
2023/11/27 04:45:42;;;;;;;26.08;23.80;;;;;;;;;;5070859;28;20040;-49
2023/11/27 04:48:08;;;;;;;25.20;23.00;;;;;;;;;;5072163;28;20024;-50
2023/11/27 04:50:34;;;;;;;25.83;23.63;;;;;;;;;;5071221;28;20113;-46
2023/11/27 04:53:00;;;;;;;25.60;23.40;;;;;;;;;;5072016;28;20020;-50
2023/11/27 04:55:26;;;;;;;25.67;23.48;;;;;;;;;;5070671;28;20470;-49
2023/11/27 04:57:52;;;;;;;25.90;23.70;;;;;;;;;;5072254;28;20407;-46
2023/11/27 05:00:18;;;;;;;25.77;23.58;;;;;;;;;;5071679;28;20035;-47
2023/11/27 05:02:44;;;;;;;25.80;23.60;;;;;;;;;;5072516;28;20541;-49
2023/11/27 05:05:10;;;;;;;25.50;23.30;;;;;;;;;;5072173;28;20028;-48
2023/11/27 05:07:36;;;;;;;25.58;23.38;;;;;;;;;;5071959;28;20146;-49
2023/11/27 05:10:03;;;;;;;25.48;23.27;;;;;;;;;;5071254;28;20020;-45
2023/11/27 05:12:29;;;;;;;25.35;23.15;;;;;;;;;;5070325;28;20048;-49
2023/11/27 05:14:55;;;;;;;25.92;23.63;;;;;;;;;;5071703;28;20038;-46
2023/11/27 05:17:22;;;;;;;25.77;23.48;;;;;;;;;;5071821;28;20463;-48
2023/11/27 05:19:48;;;;;;;26.13;23.83;;;;;;;;;;5071594;28;20025;-50
2023/11/27 05:22:14;;;;;;;25.40;23.20;;;;;;;;;;5070901;28;20028;-49
2023/11/27 05:24:40;;;;;;;25.40;23.20;;;;;;;;;;5071536;28;20108;-48
2023/11/27 05:27:06;;;;;;;25.70;23.50;;;;;;;;;;5071300;28;20111;-49
2023/11/27 05:29:32;;;;;;;25.13;22.92;;;;;;;;;;5071133;28;20052;-53
2023/11/27 05:31:58;;;;;;;25.17;22.98;;;;;;;;;;5070848;28;20027;-49
2023/11/27 05:34:24;;;;;;;24.63;22.42;;;;;;;;;;5071340;28;20024;-50
2023/11/27 05:36:50;;;;;;;23.83;21.73;;;;;;;;;;5070014;28;20032;-49
2023/11/27 05:39:16;;;;;;;24.00;21.90;;;;;;;;;;5071043;28;20112;-50
2023/11/27 05:41:42;;;;;;;24.17;22.08;;;;;;;;;;5070516;28;20030;-49
2023/11/27 05:44:08;;;;;;;25.50;23.02;;;;;;;;;;5071200;28;20028;-48
2023/11/27 05:46:35;;;;;;;24.10;22.00;;;;;;;;;;5070758;28;20074;-48
2023/11/27 05:49:01;;;;;;;23.77;21.67;;;;;;;;;;5070914;28;20077;-49
2023/11/27 05:51:27;;;;;;;24.23;22.13;;;;;;;;;;5070223;28;20432;-53
2023/11/27 05:53:56;;;;;;;23.60;21.50;;;;;;;;;;5071072;28;20108;-47
2023/11/27 05:56:23;;;;;;;24.27;22.17;;;;;;;;;;5070925;28;20030;-53
2023/11/27 05:58:49;;;;;;;24.48;22.30;;;;;;;;;;5070291;28;20032;-48
2023/11/27 06:01:16;;;;;;;23.77;21.67;;;;;;;;;;5069133;28;20025;-50
2023/11/27 06:03:42;;;;;;;23.75;21.65;;;;;;;;;;5069768;28;20036;-47
2023/11/27 06:06:08;;;;;;;24.80;22.35;;;;;;;;;;5070962;28;20501;-49
2023/11/27 06:08:34;;;;;;;24.42;22.25;;;;;;;;;;5070972;28;20021;-48
2023/11/27 06:11:04;;;;;;;23.75;21.65;;;;;;;;;;5083543;22;20046;-59
2023/11/27 06:13:31;;;;;;;24.65;22.45;;;;;;;;;;5073945;28;20093;-59
2023/11/27 06:15:57;;;;;;;24.05;21.95;;;;;;;;;;5074938;28;20082;-59
2023/11/27 06:18:23;;;;;;;23.73;21.63;;;;;;;;;;5075190;28;20028;-60
2023/11/27 06:20:49;;;;;;;24.70;22.50;;;;;;;;;;5074622;28;20450;-59
2023/11/27 06:23:15;;;;;;;24.25;22.05;;;;;;;;;;5074492;28;20093;-58
2023/11/27 06:25:42;;;;;;;25.58;23.20;;;;;;;;;;5073956;28;20128;-59
2023/11/27 06:28:09;;;;;;;23.80;21.70;;;;;;;;;;5074793;28;20476;-59
2023/11/27 06:30:35;;;;;;;24.50;22.30;;;;;;;;;;5073739;28;20020;-59
2023/11/27 06:33:01;;;;;;;23.92;21.83;;;;;;;;;;5072635;28;20060;-60
2023/11/27 06:35:27;;;;;;;25.27;23.00;;;;;;;;;;5072654;28;20040;-58
2023/11/27 06:37:53;;;;;;;25.10;22.90;;;;;;;;;;5074019;28;20036;-58
2023/11/27 06:40:20;;;;;;;23.80;21.70;;;;;;;;;;5073639;28;20020;-56
2023/11/27 06:42:46;;;;;;;24.50;22.30;;;;;;;;;;5074204;28;20024;-59
2023/11/27 06:45:12;;;;;;;23.80;21.70;;;;;;;;;;5072464;28;20516;-58
2023/11/27 06:47:39;;;;;;;23.92;21.83;;;;;;;;;;5074702;28;20024;-61
2023/11/27 06:50:05;;;;;;;24.02;21.92;;;;;;;;;;5074409;28;20131;-52
2023/11/27 06:52:31;;;;;;;25.20;23.00;;;;;;;;;;5074177;28;20020;-56
2023/11/27 06:54:57;;;;;;;24.10;22.00;;;;;;;;;;5073997;28;20444;-57
2023/11/27 06:57:23;;;;;;;24.10;22.00;;;;;;;;;;5072743;28;20021;-60
2023/11/27 06:59:49;;;;;;;24.50;22.33;;;;;;;;;;5074404;28;20103;-59
2023/11/27 07:02:15;;;;;;;24.63;22.42;;;;;;;;;;5075535;28;20077;-58
2023/11/27 07:04:41;;;;;;;23.98;21.88;;;;;;;;;;5075910;28;20741;-58
2023/11/27 07:07:09;;;;;;;24.05;21.95;;;;;;;;;;5074969;28;20040;-57
2023/11/27 07:09:35;;;;;;;24.10;22.00;;;;;;;;;;5075701;28;20103;-62
2023/11/27 07:12:01;;;;;;;24.00;21.90;;;;;;;;;;5078377;28;20456;-56
2023/11/27 07:14:27;;;;;;;24.40;22.23;;;;;;;;;;5079925;28;20020;-58
2023/11/27 07:16:54;;;;;;;24.10;21.95;;;;;;;;;;5078450;28;20039;-61
2023/11/27 07:19:20;;;;;;;24.20;22.05;;;;;;;;;;5077620;28;20028;-60
2023/11/27 07:21:46;;;;;;;24.30;22.20;;;;;;;;;;5078176;28;20104;-59
2023/11/27 07:24:12;;;;;;;24.13;22.02;;;;;;;;;;5078541;28;20516;-60
2023/11/27 07:26:39;;;;;;;24.63;22.42;;;;;;;;;;5077860;28;20024;-59
2023/11/27 07:29:05;;;;;;;23.75;21.65;;;;;;;;;;5077110;28;20016;-61
2023/11/27 07:31:31;;;;;;;23.90;21.77;;;;;;;;;;5078213;28;20118;-58
2023/11/27 07:33:58;;;;;;;23.45;21.35;;;;;;;;;;5078445;28;20072;-57
2023/11/27 07:36:27;;;;;;;23.02;20.92;;;;;;;;;;5078770;28;20024;-60
2023/11/27 07:38:53;;;;;;;23.52;21.42;;;;;;;;;;5078708;28;20509;-57
2023/11/27 07:41:20;;;;;;;23.25;21.15;;;;;;;;;;5075736;28;20025;-59
2023/11/27 07:43:46;;;;;;;24.15;22.00;;;;;;;;;;5077539;28;20051;-59
2023/11/27 07:46:12;;;;;;;23.58;21.48;;;;;;;;;;5078476;28;20031;-59
2023/11/27 07:48:39;;;;;;;23.63;21.52;;;;;;;;;;5077289;28;20025;-60
2023/11/27 07:51:05;;;;;;;23.63;21.52;;;;;;;;;;5079441;28;20100;-61
2023/11/27 07:53:31;;;;;;;23.48;21.38;;;;;;;;;;5080940;28;20037;-62
2023/11/27 07:55:59;;;;;;;23.45;21.35;;;;;;;;;;5081970;28;20053;-57
2023/11/27 07:58:25;;;;;;;23.52;21.42;;;;;;;;;;5078875;28;20052;-59
2023/11/27 08:00:51;;;;;;;24.35;22.25;;;;;;;;;;5078189;28;20493;-56
2023/11/27 08:03:17;;;;;;;24.52;22.42;;;;;;;;;;5077894;28;20033;-59
2023/11/27 08:05:43;;;;;;;23.70;21.60;;;;;;;;;;5078226;28;20024;-60
2023/11/27 08:08:10;;;;;;;25.25;23.05;;;;;;;;;;5078884;28;20112;-59
2023/11/27 08:10:37;;;;;;;24.45;22.27;;;;;;;;;;5077450;28;20099;-61
2023/11/27 08:13:06;;;;;;;24.33;22.13;;;;;;;;;;5076777;28;20390;-61
2023/11/27 08:15:32;;;;;;;24.23;22.10;;;;;;;;;;5078616;28;20024;-60
2023/11/27 08:18:02;;;;;;;23.08;20.98;;;;;;;;;;5079046;28;20059;-59
2023/11/27 08:20:28;;;;;;;22.65;20.63;;;;;;;;;;5076180;28;20028;-54
2023/11/27 08:22:54;;;;;;;24.08;21.98;;;;;;;;;;5078656;28;20021;-60
2023/11/27 08:25:20;;;;;;;23.25;21.15;;;;;;;;;;5079792;28;20390;-61
2023/11/27 08:27:46;;;;;;;23.08;20.98;;;;;;;;;;5078679;28;20024;-60
2023/11/27 08:30:14;;;;;;;24.00;21.90;;;;;;;;;;5078257;28;20414;-57
2023/11/27 08:32:40;;;;;;;24.05;21.85;;;;;;;;;;5078655;28;20155;-59
2023/11/27 08:35:08;;;;;;;23.08;20.98;;;;;;;;;;5079869;28;20090;-60
2023/11/27 08:37:39;;;;;;;23.17;21.08;;;;;;;;;;5078902;28;20044;-57
2023/11/27 08:40:06;;;;;;;24.13;21.73;;;;;;;;;;5078798;28;20025;-59
2023/11/27 08:42:34;;;;;;;23.20;21.10;;;;;;;;;;5080107;28;20154;-59
2023/11/27 08:45:10;;;;;;;22.97;20.87;;;;;;;;;;5072014;28;20495;-55
2023/11/27 08:47:37;;;;;;;23.67;21.48;;;;;;;;;;5070974;28;20025;-54
2023/11/27 08:50:03;;;;;;;23.85;21.75;;;;;;;;;;5070106;28;20596;-53
2023/11/27 08:52:29;;;;;;;22.85;20.75;;;;;;;;;;5071364;28;20032;-55
2023/11/27 08:54:57;;;;;;;22.60;20.60;;;;;;;;;;5071233;28;20017;-53
2023/11/27 08:57:23;;;;;;;22.27;20.27;;;;;;;;;;5071210;28;20013;-56
2023/11/27 08:59:50;;;;;;;22.17;20.17;;;;;;;;;;5070851;28;20041;-54
2023/11/27 09:02:17;;;;;;;24.13;21.83;;;;;;;;;;5070605;28;20437;-53
2023/11/27 09:04:43;;;;;;;22.90;20.80;;;;;;;;;;5069375;28;20620;-51
2023/11/27 09:07:11;;;;;;;22.80;20.70;;;;;;;;;;5071002;28;20124;-53
2023/11/27 09:09:38;;;;;;;23.10;21.00;;;;;;;;;;5071205;28;20020;-55
2023/11/27 09:12:04;;;;;;;22.58;20.48;;;;;;;;;;5070421;28;20468;-52
2023/11/27 09:14:31;;;;;;;22.33;20.33;;;;;;;;;;5069923;28;20393;-56
2023/11/27 09:16:59;;;;;;;23.08;20.98;;;;;;;;;;5071102;28;20489;-51
2023/11/27 09:19:26;;;;;;;22.80;20.80;;;;;;;;;;5069660;28;20028;-53
2023/11/27 09:21:53;;;;;;;22.00;20.00;;;;;;;;;;5061352;28;20040;-49
2023/11/27 09:24:19;;;;;;;24.35;22.25;;;;;;;;;;5057204;28;20024;-51
2023/11/27 09:26:45;;;;;;;21.95;19.95;;;;;;;;;;5058307;28;20711;-56
2023/11/27 09:29:11;;;;;;;22.08;20.08;;;;;;;;;;5060351;28;20032;-56
2023/11/27 09:31:38;;;;;;;21.80;19.80;;;;;;;;;;5055558;28;20036;-52
2023/11/27 09:34:04;;;;;;;22.55;20.55;;;;;;;;;;5050828;28;20024;-53
2023/11/27 09:36:30;;;;;;;22.38;20.38;;;;;;;;;;5053670;28;20043;-51
2023/11/27 09:38:56;;;;;;;23.00;20.90;;;;;;;;;;5061185;28;20154;-53
2023/11/27 09:41:22;;;;;;;22.90;20.90;;;;;;;;;;5057775;28;20054;-53
2023/11/27 09:43:48;;;;;;;22.67;20.67;;;;;;;;;;5060975;28;20032;-54
2023/11/27 09:46:18;;;;;;;23.45;21.35;;;;;;;;;;5059269;28;20029;-51
2023/11/27 09:48:44;;;;;;;24.25;22.00;;;;;;;;;;5059064;28;20518;-52
2023/11/27 09:51:13;;;;;;;22.80;20.80;;;;;;;;;;5053833;28;20040;-53
2023/11/27 09:53:58;;;;;;;23.40;21.30;;;;;;;;;;5058732;28;20356;-55
2023/11/27 09:56:27;;;;;;;24.77;22.13;;;;;;;;;;5060718;28;20381;-52
2023/11/27 09:58:59;;;;;;;23.90;21.80;;;;;;;;;;5056690;28;20088;-53
2023/11/27 10:01:29;;;;;;;22.85;20.83;;;;;;;;;;5049573;28;20689;-51
2023/11/27 10:04:07;;;;;;;22.85;20.83;;;;;;;;;;5049876;28;20031;-55
2023/11/27 10:06:41;;;;;;;;;;;;;;;;;;5051093;28;20095;-55
2023/11/27 10:09:14;;;;;;;22.38;20.38;;;;;;;;;;5052720;28;19944;-55
2023/11/27 10:11:41;;;;;;;22.42;20.42;;;;;;;;;;5054120;28;20088;-50
2023/11/27 10:14:08;;;;;;;22.20;20.20;;;;;;;;;;5051669;28;20067;-53
2023/11/27 10:16:41;;;;;;;22.42;20.42;;;;;;;;;;5050603;28;20395;-54
2023/11/27 10:19:08;;;;;;;22.35;20.35;;;;;;;;;;5050110;28;20068;-58
2023/11/27 10:21:35;;;;;;;21.85;19.85;;;;;;;;;;5049278;28;20036;-50
2023/11/27 10:24:10;;;;;;;22.08;20.08;;;;;;;;;;5050107;28;20481;-53
2023/11/27 10:26:43;;;;;;;21.42;19.42;;;;;;;;;;5049786;28;20024;-53
2023/11/27 10:29:15;;;;;;;21.85;19.85;;;;;;;;;;5054368;28;20028;-56
2023/11/27 10:31:41;;;;;;;23.08;21.00;;;;;;;;;;5054720;28;20025;-53
2023/11/27 10:34:07;;;;;;;22.02;20.02;;;;;;;;;;5057015;28;20035;-53
2023/11/27 10:36:35;;;;;;;22.48;20.48;;;;;;;;;;5069560;28;20065;-53
2023/11/27 10:39:15;;;;;;;23.13;21.13;;;;;;;;;;5069606;28;20075;-50
2023/11/27 10:41:44;;;;;;;21.90;19.90;;;;;;;;;;5068929;28;20342;-54
2023/11/27 10:44:12;;;;;;;22.27;20.27;;;;;;;;;;5069006;28;20059;-55
2023/11/27 10:46:40;;;;;;;25.87;23.70;;;;;;;;;;5065963;28;20090;-52
2023/11/27 10:49:07;;;;;;;22.50;20.50;;;;;;;;;;5064973;28;20346;-54
2023/11/27 10:51:33;;;;;;;22.60;20.60;;;;;;;;;;5066791;28;20029;-56
2023/11/27 10:54:00;;;;;;;22.80;20.80;;;;;;;;;;5067954;28;20024;-54
2023/11/27 10:56:28;;;;;;;22.35;20.35;;;;;;;;;;5053344;28;20029;-55
2023/11/27 10:59:08;;;;;;;22.00;20.00;;;;;;;;;;5049133;28;20036;-54
2023/11/27 11:01:39;;;;;;;21.92;19.92;;;;;;;;;;5046701;28;20748;-51
2023/11/27 11:04:09;;;;;;;21.83;19.83;;;;;;;;;;5057482;28;20508;-56
2023/11/27 11:06:37;;;;;;;21.70;19.70;;;;;;;;;;5069243;28;20028;-54
2023/11/27 11:09:07;;;;;;;21.65;19.65;;;;;;;;;;5068738;28;20516;-57
2023/11/27 11:11:33;;;;;;;21.65;19.65;;;;;;;;;;5066913;28;20177;-54
2023/11/27 11:13:59;;;;;;;21.75;19.75;;;;;;;;;;5069423;28;20395;-55
2023/11/27 11:16:31;;;;;;;21.50;19.60;;;;;;;;;;5069003;28;20037;-55
2023/11/27 11:19:07;;;;;;;21.45;19.55;;;;;;;;;;5069188;28;20078;-53
2023/11/27 11:21:43;;;;;;;21.08;19.17;;;;;;;;;;5056620;28;20037;-56
2023/11/27 11:24:17;;;;;;;20.80;18.90;;;;;;;;;;5050009;28;20033;-57
2023/11/27 11:26:46;;;;;;;21.02;19.13;;;;;;;;;;5047754;28;20090;-55
2023/11/27 11:29:14;;;;;;;21.33;19.42;;;;;;;;;;5057560;28;20037;-50
2023/11/27 11:32:00;;;;;;;21.30;19.40;;;;;;;;;;5068569;28;20027;-55
2023/11/27 11:34:26;;;;;;;20.75;18.85;;;;;;;;;;5067449;28;20025;-52
2023/11/27 11:36:59;;;;;;;20.75;18.85;;;;;;;;;;5069129;28;20028;-53
2023/11/27 11:39:25;;;;;;;20.77;18.88;;;;;;;;;;5068712;28;20033;-55
2023/11/27 11:42:02;;;;;;;21.17;19.27;;;;;;;;;;5067386;28;20110;-55
2023/11/27 11:44:29;;;;;;;20.98;19.08;;;;;;;;;;5068745;28;20028;-56
2023/11/27 11:46:55;;;;;;;20.73;18.83;;;;;;;;;;5068708;28;20437;-54
2023/11/27 11:49:25;;;;;;;20.65;18.75;;;;;;;;;;5068195;28;20083;-58
2023/11/27 11:52:15;;;;;;;20.80;18.90;;;;;;;;;;5068679;28;20024;-50
2023/11/27 11:54:42;;;;;;;20.30;18.40;;;;;;;;;;5065116;28;20040;-55
2023/11/27 11:57:16;;;;;;;20.17;18.27;;;;;;;;;;5051828;28;20025;-52
2023/11/27 11:59:53;;;;;;;20.67;18.77;;;;;;;;;;5053059;28;20052;-51
2023/11/27 12:02:22;;;;;;;20.58;18.67;;;;;;;;;;5052083;28;20033;-55
2023/11/27 12:04:53;;;;;;;19.85;17.95;;;;;;;;;;5050865;28;20060;-55
2023/11/27 12:07:22;;;;;;;20.15;18.25;;;;;;;;;;5052697;28;20017;-54
2023/11/27 12:09:49;;;;;;;19.58;17.73;;;;;;;;;;5064320;28;20100;-55
2023/11/27 12:12:16;;;;;;;16.85;15.15;;;;;;;;;;5084278;22;20044;-48
2023/11/27 12:14:43;;;;;;;16.85;15.15;;;;;;;;;;5071997;28;20089;-53
2023/11/27 12:17:09;;;;;;;17.17;15.48;;;;;;;;;;5071636;28;20028;-48
2023/11/27 12:19:35;;;;;;;17.35;15.65;;;;;;;;;;5070994;28;20035;-53
2023/11/27 12:22:04;;;;;;;17.35;15.65;;;;;;;;;;5071745;28;20035;-52
2023/11/27 12:24:30;;;;;;;18.52;16.73;;;;;;;;;;5072582;28;20032;-53
2023/11/27 12:26:56;;;;;;;17.73;15.93;;;;;;;;;;5072349;28;20051;-52
2023/11/27 12:29:25;;;;;;;17.27;15.57;;;;;;;;;;5072262;28;20032;-49
2023/11/27 12:31:53;;;;;;;17.45;15.75;;;;;;;;;;5071808;28;20501;-51
2023/11/27 12:34:24;;;;;;;17.17;15.48;;;;;;;;;;5072499;28;20031;-52
2023/11/27 12:36:51;;;;;;;17.17;15.48;;;;;;;;;;5071137;28;20091;-50
2023/11/27 12:39:25;;;;;;;17.45;15.75;;;;;;;;;;5070704;28;20039;-50
2023/11/27 12:41:51;;;;;;;17.20;15.50;;;;;;;;;;5071729;28;20374;-51
2023/11/27 12:44:20;;;;;;;17.15;15.45;;;;;;;;;;5072170;28;20263;-52
2023/11/27 12:46:49;;;;;;;;;;;;;;;;;;5071033;28;20025;-48
2023/11/27 12:49:22;;;;;;;17.48;15.77;;;;;;;;;;5071611;28;19915;-47
2023/11/27 12:51:51;;;;;;;17.25;15.55;;;;;;;;;;5070196;28;20027;-48
2023/11/27 12:54:21;;;;;;;17.27;15.57;;;;;;;;;;5072126;28;20024;-48
2023/11/27 12:56:51;;;;;;;17.90;16.10;;;;;;;;;;5072171;28;20027;-50
2023/11/27 12:59:17;;;;;;;17.92;16.13;;;;;;;;;;5071662;28;20347;-49
2023/11/27 13:01:59;;;;;;;18.00;16.20;;;;;;;;;;5071188;28;20051;-52
2023/11/27 13:04:31;;;;;;;17.90;16.10;;;;;;;;;;5071391;28;20036;-47
2023/11/27 13:06:58;;;;;;;17.95;16.15;;;;;;;;;;5071537;28;20036;-51
2023/11/27 13:09:25;;;;;;;18.20;16.40;;;;;;;;;;5071179;28;20020;-50
2023/11/27 13:11:52;;;;;;;18.02;16.23;;;;;;;;;;5056124;28;20029;-50
2023/11/27 13:14:18;;;;;;;18.13;16.33;;;;;;;;;;5051821;28;20387;-53
2023/11/27 13:16:47;;;;;;;18.20;16.40;;;;;;;;;;5051621;28;20033;-51
2023/11/27 13:19:13;;;;;;;18.08;16.27;;;;;;;;;;5051154;28;20025;-51
2023/11/27 13:21:39;;;;;;;18.23;16.42;;;;;;;;;;5050788;28;20025;-55
2023/11/27 13:24:05;;;;;;;18.30;16.50;;;;;;;;;;5051412;28;20060;-52
2023/11/27 13:26:37;;;;;;;17.63;15.82;;;;;;;;;;5049963;28;20025;-50
2023/11/27 13:29:03;;;;;;;17.73;15.93;;;;;;;;;;5058756;28;20154;-50
2023/11/27 13:31:33;;;;;;;17.73;15.98;;;;;;;;;;5068803;28;20164;-47
2023/11/27 13:34:06;;;;;;;17.67;15.93;;;;;;;;;;5060698;28;20024;-50
2023/11/27 13:36:32;;;;;;;17.45;15.75;;;;;;;;;;5059558;28;20017;-49
2023/11/27 13:39:07;;;;;;;16.92;15.23;;;;;;;;;;5063064;28;20106;-51
2023/11/27 13:41:33;;;;;;;16.60;14.90;;;;;;;;;;5059429;28;20082;-50
2023/11/27 13:43:59;;;;;;;16.95;15.25;;;;;;;;;;5058765;28;20048;-51
2023/11/27 13:46:25;;;;;;;17.85;16.05;;;;;;;;;;5060979;28;20439;-50
2023/11/27 13:48:51;;;;;;;17.77;16.02;;;;;;;;;;5060058;28;20028;-48
2023/11/27 13:51:19;;;;;;;17.33;15.63;;;;;;;;;;5056808;28;20021;-50
2023/11/27 13:53:47;;;;;;;17.27;15.57;;;;;;;;;;5056017;28;20023;-52
2023/11/27 13:56:18;;;;;;;17.00;15.30;;;;;;;;;;5060386;28;20069;-49
2023/11/27 13:58:51;;;;;;;17.00;15.30;;;;;;;;;;5060543;28;20031;-53
2023/11/27 14:01:19;;;;;;;17.17;15.48;;;;;;;;;;5057054;28;20414;-54
2023/11/27 14:03:46;;;;;;;16.80;15.10;;;;;;;;;;5059935;28;20020;-50
2023/11/27 14:06:25;;;;;;;16.58;14.88;;;;;;;;;;5061557;28;20039;-52
2023/11/27 14:08:52;;;;;;;16.67;14.98;;;;;;;;;;5061166;28;20019;-48
2023/11/27 14:11:29;;;;;;;16.73;15.02;;;;;;;;;;5057346;28;20402;-53
2023/11/27 14:14:00;;;;;;;16.80;15.10;;;;;;;;;;5059244;28;20008;-52
2023/11/27 14:16:27;;;;;;;17.08;15.38;;;;;;;;;;5059627;28;20065;-51
2023/11/27 14:24:55;;;;;;;17.38;15.68;;;;;;;;;;5030306;28;20030;-54